createdAt,value
2023-04-21T00:00:54.134Z,99633.84
2023-04-21T00:03:23.061Z,99632.25
2023-04-21T00:05:50.115Z,99631.75
2023-04-21T00:08:17.930Z,99634.84
2023-04-21T00:10:44.779Z,99637.58
2023-04-21T00:13:11.623Z,99630.09
2023-04-21T00:15:38.181Z,99635.05
2023-04-21T00:18:05.664Z,99634.59
2023-04-21T00:20:32.289Z,99632.27
2023-04-21T00:22:59.050Z,99634.23
2023-04-21T00:25:25.729Z,99629.59
2023-04-21T00:27:52.487Z,99629.26
2023-04-21T00:30:19.088Z,99627.28
2023-04-21T00:32:45.798Z,99629.25
2023-04-21T00:35:12.502Z,99630.60
2023-04-21T00:37:40.960Z,99626.65
2023-04-21T00:40:08.515Z,99619.05
2023-04-21T00:42:35.610Z,99626.42
2023-04-21T00:45:05.699Z,99624.27
2023-04-21T00:47:32.702Z,99626.06
2023-04-21T00:49:59.532Z,99629.42
2023-04-21T00:52:26.113Z,99626.30
2023-04-21T00:54:53.370Z,99625.16
2023-04-21T00:57:21.213Z,99618.14
2023-04-21T00:59:49.152Z,99620.54
2023-04-21T01:02:16.354Z,99623.95
2023-04-21T01:04:44.884Z,99622.59
2023-04-21T01:07:11.860Z,99620.50
2023-04-21T01:09:38.570Z,99623.89
2023-04-21T01:12:06.947Z,99622.91
2023-04-21T01:14:35.100Z,99623.48
2023-04-21T01:17:04.840Z,99624.35
2023-04-21T01:19:32.301Z,99621.28
2023-04-21T01:22:01.331Z,99617.38
2023-04-21T01:24:40.299Z,99613.94
2023-04-21T01:27:10.960Z,99612.87
2023-04-21T01:29:38.410Z,99612.01
2023-04-21T01:32:06.701Z,99612.14
2023-04-21T01:34:33.470Z,99607.13
2023-04-21T01:37:00.223Z,99611.16
2023-04-21T01:39:27.031Z,99609.88
2023-04-21T01:41:54.989Z,99608.64
2023-04-21T01:44:21.556Z,99606.00
2023-04-21T01:46:48.396Z,99601.30
2023-04-21T01:49:15.206Z,99602.27
2023-04-21T01:51:41.886Z,99603.02
2023-04-21T01:54:08.899Z,99601.94
2023-04-21T01:56:35.594Z,99598.26
2023-04-21T01:59:03.441Z,99594.89
2023-04-21T02:01:30.343Z,99596.50
2023-04-21T02:03:57.009Z,99594.36
2023-04-21T02:06:23.758Z,99591.14
2023-04-21T02:08:50.270Z,99591.38
2023-04-21T02:11:17.068Z,99590.73
2023-04-21T02:13:43.632Z,99585.37
2023-04-21T02:16:13.911Z,99578.44
2023-04-21T02:18:40.918Z,99572.57
2023-04-21T02:21:07.567Z,99571.00
2023-04-21T02:23:34.475Z,99566.29
2023-04-21T02:26:01.069Z,99569.84
2023-04-21T02:28:27.763Z,99569.31
2023-04-21T02:30:54.431Z,99570.86
2023-04-21T02:33:21.189Z,99570.61
2023-04-21T02:35:48.449Z,99568.86
2023-04-21T02:38:15.836Z,99565.95
2023-04-21T02:40:42.484Z,99568.29
2023-04-21T02:43:09.908Z,99565.21
2023-04-21T02:45:36.726Z,99570.13
2023-04-21T02:48:03.627Z,99564.91
2023-04-21T02:50:30.482Z,99563.73
2023-04-21T02:52:57.267Z,99564.58
2023-04-21T02:55:24.453Z,99562.77
2023-04-21T02:57:51.115Z,99564.30
2023-04-21T03:00:18.004Z,99560.89
2023-04-21T03:02:44.984Z,99561.23
2023-04-21T03:05:12.341Z,99561.09
2023-04-21T03:07:39.470Z,99558.23
2023-04-21T03:10:06.500Z,99564.98
2023-04-21T03:12:33.233Z,99564.84
2023-04-21T03:15:00.205Z,99557.90
2023-04-21T03:17:27.225Z,99560.74
2023-04-21T03:19:53.858Z,99564.20
2023-04-21T03:22:20.615Z,99562.35
2023-04-21T03:24:47.667Z,99567.93
2023-04-21T03:27:14.284Z,99567.48
2023-04-21T03:29:41.052Z,99563.42
2023-04-21T03:32:08.047Z,99565.82
2023-04-21T03:34:35.018Z,99563.94
2023-04-21T03:37:03.932Z,99563.73
2023-04-21T03:39:31.052Z,99562.80
2023-04-21T03:41:58.070Z,99561.50
2023-04-21T03:44:26.475Z,99561.14
2023-04-21T03:46:53.890Z,99560.49
2023-04-21T03:49:21.884Z,99559.64
2023-04-21T03:51:48.838Z,99557.73
2023-04-21T03:54:15.556Z,99557.39
2023-04-21T03:56:42.250Z,99557.77
2023-04-21T03:59:08.983Z,99557.03
2023-04-21T04:01:36.359Z,99552.49
2023-04-21T04:04:03.258Z,99548.41
2023-04-21T04:06:32.018Z,99551.59
2023-04-21T04:08:59.089Z,99547.55
2023-04-21T04:11:25.718Z,99546.05
2023-04-21T04:13:52.347Z,99546.30
2023-04-21T04:16:19.260Z,99549.33
2023-04-21T04:18:45.958Z,99548.44
2023-04-21T04:21:13.078Z,99552.67
2023-04-21T04:23:39.831Z,99552.39
2023-04-21T04:26:06.880Z,99552.01
2023-04-21T04:28:34.300Z,99557.32
2023-04-21T04:31:02.454Z,99557.81
2023-04-21T04:33:29.152Z,99562.41
2023-04-21T04:35:55.691Z,99561.16
2023-04-21T04:38:22.495Z,99564.20
2023-04-21T04:40:56.863Z,99561.05
2023-04-21T04:43:26.655Z,99561.44
2023-04-21T04:45:54.242Z,99564.41
2023-04-21T04:48:21.007Z,99566.97
2023-04-21T04:50:47.505Z,99568.22
2023-04-21T04:53:14.055Z,99570.55
2023-04-21T04:55:43.052Z,99573.90
2023-04-21T04:58:10.457Z,99572.13
2023-04-21T05:00:37.144Z,99571.73
2023-04-21T05:03:04.351Z,99564.40
2023-04-21T05:05:31.442Z,99566.27
2023-04-21T05:07:58.173Z,99565.95
2023-04-21T05:10:25.146Z,99565.39
2023-04-21T05:12:51.838Z,99560.50
2023-04-21T05:15:18.521Z,99566.07
2023-04-21T05:17:46.523Z,99571.83
2023-04-21T05:20:13.197Z,99574.15
2023-04-21T05:22:40.502Z,99573.02
2023-04-21T05:25:07.240Z,99574.27
2023-04-21T05:27:34.344Z,99571.08
2023-04-21T05:30:01.272Z,99569.52
2023-04-21T05:32:28.707Z,99565.27
2023-04-21T05:34:58.165Z,99570.13
2023-04-21T05:37:25.037Z,99568.37
2023-04-21T05:39:51.710Z,99570.44
2023-04-21T05:42:18.457Z,99569.13
2023-04-21T05:44:45.632Z,99570.16
2023-04-21T05:47:12.410Z,99572.19
2023-04-21T05:49:39.050Z,99564.63
2023-04-21T05:52:08.906Z,99564.30
2023-04-21T05:54:35.901Z,99565.91
2023-04-21T05:57:02.714Z,99562.78
2023-04-21T05:59:29.560Z,99558.98
2023-04-21T06:01:56.854Z,99556.08
2023-04-21T06:04:24.414Z,99551.80
2023-04-21T06:06:53.364Z,99550.98
2023-04-21T06:09:20.733Z,99556.69
2023-04-21T06:11:53.443Z,99555.15
2023-04-21T06:14:22.239Z,99549.59
2023-04-21T06:16:51.968Z,99548.59
2023-04-21T06:19:19.094Z,99550.23
2023-04-21T06:21:48.107Z,99548.31
2023-04-21T06:24:16.477Z,99547.35
2023-04-21T06:26:43.319Z,99547.73
2023-04-21T06:29:10.934Z,99549.81
2023-04-21T06:31:39.633Z,99550.70
2023-04-21T06:34:06.770Z,99549.33
2023-04-21T06:36:35.313Z,99545.48
2023-04-21T06:39:04.326Z,99550.79
2023-04-21T06:41:33.645Z,99551.33
2023-04-21T06:44:01.372Z,99549.92
2023-04-21T06:46:30.918Z,99548.40
2023-04-21T06:48:58.367Z,99550.65
2023-04-21T06:51:26.665Z,99555.79
2023-04-21T06:53:53.791Z,99553.21
2023-04-21T06:56:20.783Z,99562.14
2023-04-21T06:59:00.157Z,99559.75
2023-04-21T07:01:27.114Z,99558.08
2023-04-21T07:03:54.662Z,99556.92
2023-04-21T07:06:22.296Z,99559.23
2023-04-21T07:08:57.245Z,99559.86
2023-04-21T07:11:24.046Z,99558.81
2023-04-21T07:13:51.033Z,99554.61
2023-04-21T07:16:18.187Z,99552.83
2023-04-21T07:18:46.096Z,99548.36
2023-04-21T07:21:14.118Z,99552.92
2023-04-21T07:23:41.074Z,99553.05
2023-04-21T07:26:08.103Z,99557.17
2023-04-21T07:28:38.483Z,99554.46
2023-04-21T07:31:07.161Z,99558.14
2023-04-21T07:33:34.743Z,99560.17
2023-04-21T07:36:01.465Z,99557.25
2023-04-21T07:38:30.535Z,99552.98
2023-04-21T07:41:04.371Z,99558.91
2023-04-21T07:43:35.937Z,99557.98
2023-04-21T07:46:04.332Z,99558.85
2023-04-21T07:48:32.161Z,99557.58
2023-04-21T07:51:05.723Z,99560.13
2023-04-21T07:53:38.336Z,99565.69
2023-04-21T07:56:08.454Z,99557.73
2023-04-21T07:58:43.541Z,99551.15
2023-04-21T08:01:23.334Z,99557.98
2023-04-21T08:03:50.246Z,99552.78
2023-04-21T08:06:17.408Z,99553.26
2023-04-21T08:08:44.998Z,99553.51
2023-04-21T08:11:11.878Z,99557.27
2023-04-21T08:13:38.598Z,99557.93
2023-04-21T08:16:05.791Z,99551.14
2023-04-21T08:18:33.296Z,99552.38
2023-04-21T08:21:01.968Z,99560.67
2023-04-21T08:23:32.839Z,99550.31
2023-04-21T08:26:06.562Z,99548.47
2023-04-21T08:28:34.111Z,99562.41
2023-04-21T08:31:01.867Z,99564.46
2023-04-21T08:33:32.605Z,99567.97
2023-04-21T08:36:07.509Z,99569.94
2023-04-21T08:38:44.165Z,99574.05
2023-04-21T08:41:11.562Z,99570.37
2023-04-21T08:43:39.816Z,99571.59
2023-04-21T08:46:08.020Z,99570.60
2023-04-21T08:48:37.408Z,99570.77
2023-04-21T08:51:09.995Z,99569.63
2023-04-21T08:53:38.574Z,99569.45
2023-04-21T08:56:11.334Z,99569.94
2023-04-21T08:58:39.086Z,99571.17
2023-04-21T09:01:07.144Z,99565.44
2023-04-21T09:03:34.142Z,99570.75
2023-04-21T09:06:06.668Z,99575.02
2023-04-21T09:08:39.165Z,99575.19
2023-04-21T09:11:06.111Z,99574.09
2023-04-21T09:13:35.005Z,99574.15
2023-04-21T09:16:14.390Z,99569.75
2023-04-21T09:18:43.558Z,99576.55
2023-04-21T09:21:13.529Z,99582.56
2023-04-21T09:23:48.556Z,99585.02
2023-04-21T09:26:16.140Z,99582.16
2023-04-21T09:28:43.897Z,99581.11
2023-04-21T09:31:19.322Z,99587.96
2023-04-21T09:33:57.699Z,99592.39
2023-04-21T09:36:27.772Z,99599.88
2023-04-21T09:39:20.603Z,99603.70
2023-04-21T09:41:48.720Z,99605.23
2023-04-21T09:44:18.207Z,99606.80
2023-04-21T09:46:49.274Z,99601.90
2023-04-21T09:49:17.823Z,99602.23
2023-04-21T09:52:17.095Z,99605.73
2023-04-21T09:54:36.477Z,99608.08
2023-04-21T09:57:04.037Z,99614.70
2023-04-21T09:59:36.511Z,99614.32
2023-04-21T10:02:09.082Z,99607.25
2023-04-21T10:04:36.945Z,99613.79
2023-04-21T10:07:30.553Z,99616.55
2023-04-21T10:10:00.318Z,99613.93
2023-04-21T10:12:50.782Z,99614.85
2023-04-21T10:15:41.060Z,99621.95
2023-04-21T10:18:13.793Z,99626.06
2023-04-21T10:20:53.400Z,99631.64
2023-04-21T10:23:33.120Z,99642.50
2023-04-21T10:26:06.381Z,99639.34
2023-04-21T10:29:06.674Z,99642.05
2023-04-21T10:31:54.874Z,99640.50
2023-04-21T10:34:32.866Z,99648.31
2023-04-21T10:37:06.703Z,99650.11
2023-04-21T10:39:43.401Z,99642.98
2023-04-21T10:42:16.568Z,99640.39
2023-04-21T10:44:44.313Z,99633.04
2023-04-21T10:47:13.855Z,99624.54
2023-04-21T10:49:41.326Z,99627.35
2023-04-21T10:52:10.451Z,99621.15
2023-04-21T10:54:47.776Z,99625.14
2023-04-21T10:57:18.343Z,99629.88
2023-04-21T10:59:47.714Z,99626.21
2023-04-21T11:02:17.174Z,99629.33
2023-04-21T11:04:51.358Z,99637.44
2023-04-21T11:07:19.001Z,99635.38
2023-04-21T11:10:09.546Z,99634.09
2023-04-21T11:12:41.691Z,99631.48
2023-04-21T11:15:10.953Z,99634.30
2023-04-21T11:17:39.167Z,99633.34
2023-04-21T11:20:07.640Z,99624.79
2023-04-21T11:22:36.197Z,99622.63
2023-04-21T11:25:05.450Z,99625.45
2023-04-21T11:27:33.116Z,99619.93
2023-04-21T11:30:02.953Z,99616.42
2023-04-21T11:32:30.647Z,99604.80
2023-04-21T11:34:57.446Z,99604.64
2023-04-21T11:37:26.594Z,99601.64
2023-04-21T11:39:58.613Z,99602.48
2023-04-21T11:42:26.290Z,99594.66
2023-04-21T11:44:55.285Z,99596.44
2023-04-21T11:47:27.236Z,99583.98
2023-04-21T11:50:00.874Z,99584.23
2023-04-21T11:52:32.563Z,99580.98
2023-04-21T11:55:00.962Z,99578.95
2023-04-21T11:57:29.317Z,99575.01
2023-04-21T12:00:01.091Z,99576.22
2023-04-21T12:02:30.279Z,99568.84
2023-04-21T12:05:00.738Z,99571.24
2023-04-21T12:07:32.632Z,99567.62
2023-04-21T12:10:11.662Z,99566.59
2023-04-21T12:12:57.562Z,99559.95
2023-04-21T12:15:28.678Z,99552.55
2023-04-21T12:17:56.096Z,99554.06
2023-04-21T12:20:27.998Z,99551.48
2023-04-21T12:22:56.936Z,99550.96
2023-04-21T12:25:27.639Z,99548.02
2023-04-21T12:27:58.977Z,99542.95
2023-04-21T12:30:27.019Z,99544.06
2023-04-21T12:32:55.314Z,99541.94
2023-04-21T12:35:23.512Z,99541.74
2023-04-21T12:37:50.953Z,99538.86
2023-04-21T12:40:18.284Z,99537.73
2023-04-21T12:42:52.776Z,99534.05
2023-04-21T12:45:24.498Z,99535.39
2023-04-21T12:47:53.105Z,99538.73
2023-04-21T12:50:20.632Z,99534.44
2023-04-21T12:52:51.182Z,99528.63
2023-04-21T12:55:20.633Z,99527.33
2023-04-21T12:57:47.609Z,99528.82
2023-04-21T13:00:15.896Z,99526.84
2023-04-21T13:02:43.348Z,99530.77
2023-04-21T13:05:12.152Z,99534.90
2023-04-21T13:07:40.874Z,99538.95
2023-04-21T13:10:08.495Z,99534.09
2023-04-21T13:12:36.136Z,99533.64
2023-04-21T13:15:03.220Z,99533.15
2023-04-21T13:17:30.298Z,99533.95
2023-04-21T13:20:01.080Z,99531.22
2023-04-21T13:22:28.407Z,99526.40
2023-04-21T13:24:55.073Z,99527.52
2023-04-21T13:27:21.822Z,99519.48
2023-04-21T13:29:48.621Z,99518.55
2023-04-21T13:32:18.152Z,99523.91
2023-04-21T13:34:45.517Z,99521.44
2023-04-21T13:37:15.376Z,99519.80
2023-04-21T13:39:42.182Z,99515.90
2023-04-21T13:42:09.969Z,99514.09
2023-04-21T13:44:36.986Z,99511.90
2023-04-21T13:47:12.276Z,99507.55
2023-04-21T13:49:42.489Z,99508.98
2023-04-21T13:52:09.288Z,99508.08
2023-04-21T13:54:36.356Z,99507.10
2023-04-21T13:57:03.360Z,99506.84
2023-04-21T13:59:30.864Z,99507.89
2023-04-21T14:01:57.721Z,99510.08
2023-04-21T14:04:25.135Z,99503.30
2023-04-21T14:06:51.800Z,99503.88
2023-04-21T14:09:18.413Z,99504.84
2023-04-21T14:11:45.043Z,99501.52
2023-04-21T14:14:11.669Z,99503.15
2023-04-21T14:16:38.918Z,99507.06
2023-04-21T14:19:05.882Z,99507.61
2023-04-21T14:21:32.895Z,99506.41
2023-04-21T14:23:59.661Z,99505.83
2023-04-21T14:26:26.378Z,99506.79
2023-04-21T14:28:53.071Z,99508.06
2023-04-21T14:31:21.816Z,99508.94
2023-04-21T14:33:48.949Z,99506.63
2023-04-21T14:36:15.760Z,99505.95
2023-04-21T14:38:42.720Z,99501.29
2023-04-21T14:41:12.637Z,99501.05
2023-04-21T14:43:41.683Z,99500.67
2023-04-21T14:46:08.369Z,99501.34
2023-04-21T14:48:35.044Z,99496.91
2023-04-21T14:51:01.731Z,99494.18
2023-04-21T14:53:28.491Z,99490.89
2023-04-21T14:55:55.397Z,99493.05
2023-04-21T14:58:22.016Z,99499.48
2023-04-21T15:00:48.678Z,99497.78
2023-04-21T15:03:15.524Z,99498.20
2023-04-21T15:05:42.278Z,99504.03
2023-04-21T15:08:09.465Z,99504.36
2023-04-21T15:10:36.622Z,99503.46
2023-04-21T15:13:03.330Z,99505.11
2023-04-21T15:15:29.901Z,99495.89
2023-04-21T15:17:56.675Z,99491.04
2023-04-21T15:20:36.573Z,99491.27
2023-04-21T15:23:11.144Z,99490.96
2023-04-21T15:25:39.948Z,99492.63
2023-04-21T15:28:21.531Z,99495.33
2023-04-21T15:30:48.353Z,99497.77
2023-04-21T15:33:16.820Z,99510.48
2023-04-21T15:35:43.544Z,99520.27
2023-04-21T15:38:10.275Z,99531.48
2023-04-21T15:40:46.401Z,99539.08
2023-04-21T15:43:20.130Z,99539.99
2023-04-21T15:45:46.947Z,99534.95
2023-04-21T15:48:16.161Z,99532.70
2023-04-21T15:50:44.602Z,99528.80
2023-04-21T15:53:11.328Z,99523.48
2023-04-21T15:55:38.433Z,99521.77
2023-04-21T15:58:05.463Z,99519.48
2023-04-21T16:00:32.360Z,99513.86
2023-04-21T16:02:59.744Z,99502.09
2023-04-21T16:05:29.120Z,99504.73
2023-04-21T16:07:56.269Z,99498.59
2023-04-21T16:10:24.541Z,99499.61
2023-04-21T16:12:51.669Z,99493.08
2023-04-21T16:15:24.349Z,99487.86
2023-04-21T16:17:52.561Z,99489.95
2023-04-21T16:20:19.671Z,99487.06
2023-04-21T16:22:49.166Z,99486.64
2023-04-21T16:25:18.389Z,99479.41
2023-04-21T16:27:45.207Z,99471.39
2023-04-21T16:30:12.701Z,99462.36
2023-04-21T16:32:40.398Z,99461.59
2023-04-21T16:35:07.951Z,99464.93
2023-04-21T16:37:39.798Z,99464.81
2023-04-21T16:40:08.190Z,99466.59
2023-04-21T16:42:36.623Z,99466.67
2023-04-21T16:45:04.501Z,99469.32
2023-04-21T16:47:41.320Z,99474.70
2023-04-21T16:50:09.261Z,99480.80
2023-04-21T16:52:36.469Z,99480.42
2023-04-21T16:55:03.690Z,99481.55
2023-04-21T16:57:30.655Z,99487.39
2023-04-21T16:59:58.637Z,99488.77
2023-04-21T17:02:25.903Z,99491.54
2023-04-21T17:04:53.647Z,99499.81
2023-04-21T17:07:20.544Z,99495.22
2023-04-21T17:09:49.942Z,99501.04
2023-04-21T17:12:18.916Z,99504.10
2023-04-21T17:14:46.664Z,99505.02
2023-04-21T17:17:13.597Z,99509.58
2023-04-21T17:19:42.018Z,99514.69
2023-04-21T17:22:09.008Z,99521.21
2023-04-21T17:24:51.683Z,99527.96
2023-04-21T17:27:20.737Z,99533.11
2023-04-21T17:30:15.228Z,99535.64
2023-04-21T17:32:43.181Z,99544.61
2023-04-21T17:35:10.006Z,99547.10
2023-04-21T17:37:38.003Z,99548.67
2023-04-21T17:40:06.798Z,99546.09
2023-04-21T17:42:34.643Z,99548.33
2023-04-21T17:45:04.802Z,99551.48
2023-04-21T17:47:31.965Z,99553.88
2023-04-21T17:49:59.176Z,99555.90
2023-04-21T17:52:26.783Z,99552.70
2023-04-21T17:54:55.538Z,99555.58
2023-04-21T17:57:23.312Z,99558.81
2023-04-21T17:59:50.073Z,99557.02
2023-04-21T18:02:17.051Z,99546.24
2023-04-21T18:04:44.788Z,99545.40
2023-04-21T18:07:11.864Z,99546.32
2023-04-21T18:09:38.913Z,99545.83
2023-04-21T18:12:05.786Z,99546.62
2023-04-21T18:14:33.449Z,99541.11
2023-04-21T18:17:02.215Z,99538.90
2023-04-21T18:19:29.145Z,99534.55
2023-04-21T18:21:56.145Z,99534.38
2023-04-21T18:24:22.767Z,99537.13
2023-04-21T18:26:50.863Z,99538.52
2023-04-21T18:29:19.003Z,99536.02
2023-04-21T18:31:48.354Z,99528.00
2023-04-21T18:34:15.938Z,99532.42
2023-04-21T18:36:42.781Z,99527.86
2023-04-21T18:39:10.960Z,99523.94
2023-04-21T18:41:37.794Z,99521.14
2023-04-21T18:44:07.644Z,99518.91
2023-04-21T18:46:34.786Z,99519.28
2023-04-21T18:49:02.727Z,99524.80
2023-04-21T18:51:31.055Z,99524.27
2023-04-21T18:53:58.610Z,99526.86
2023-04-21T18:56:26.241Z,99522.60
2023-04-21T18:58:53.220Z,99523.78
2023-04-21T19:01:20.057Z,99524.23
2023-04-21T19:03:48.537Z,99522.20
2023-04-21T19:06:16.313Z,99518.69
2023-04-21T19:08:43.931Z,99515.10
2023-04-21T19:11:12.559Z,99511.92
2023-04-21T19:13:39.825Z,99512.52
2023-04-21T19:16:10.005Z,99509.50
2023-04-21T19:18:37.441Z,99505.95
2023-04-21T19:21:05.372Z,99498.11
2023-04-21T19:23:32.768Z,99495.52
2023-04-21T19:26:04.103Z,99492.90
2023-04-21T19:28:35.482Z,99490.61
2023-04-21T19:31:02.736Z,99491.52
2023-04-21T19:33:33.737Z,99485.94
2023-04-21T19:36:01.228Z,99481.06
2023-04-21T19:38:30.503Z,99480.52
2023-04-21T19:40:57.272Z,99479.34
2023-04-21T19:43:24.047Z,99475.98
2023-04-21T19:45:51.347Z,99472.90
2023-04-21T19:48:18.688Z,99474.91
2023-04-21T19:50:46.459Z,99474.17
2023-04-21T19:53:15.275Z,99477.52
2023-04-21T19:55:42.295Z,99477.57
2023-04-21T19:58:09.841Z,99475.79
2023-04-21T20:00:36.891Z,99472.27
2023-04-21T20:03:05.726Z,99471.73
2023-04-21T20:05:33.550Z,99472.64
2023-04-21T20:08:01.793Z,99473.14
2023-04-21T20:10:30.157Z,99473.19
2023-04-21T20:13:00.124Z,99477.60
2023-04-21T20:15:29.816Z,99476.45
2023-04-21T20:17:56.897Z,99474.92
2023-04-21T20:20:25.544Z,99475.59
2023-04-21T20:22:52.453Z,99478.58
2023-04-21T20:25:21.515Z,99480.97
2023-04-21T20:27:48.344Z,99482.14
2023-04-21T20:30:17.628Z,99479.73
2023-04-21T20:32:45.824Z,99482.41
2023-04-21T20:35:16.751Z,99483.39
2023-04-21T20:37:44.952Z,99480.17
2023-04-21T20:40:12.919Z,99481.61
2023-04-21T20:42:44.501Z,99484.20
2023-04-21T20:45:12.388Z,99479.43
2023-04-21T20:47:39.959Z,99482.90
2023-04-21T20:50:08.946Z,99477.69
2023-04-21T20:52:36.434Z,99475.14
2023-04-21T20:55:03.696Z,99474.35
2023-04-21T20:57:30.684Z,99478.17
2023-04-21T20:59:57.509Z,99473.38
2023-04-21T21:02:24.731Z,99473.58
2023-04-21T21:04:53.730Z,99473.25
2023-04-21T21:07:20.553Z,99475.02
2023-04-21T21:09:49.323Z,99471.45
2023-04-21T21:12:18.642Z,99466.82
2023-04-21T21:14:45.380Z,99463.27
2023-04-21T21:17:15.688Z,99463.04
2023-04-21T21:19:43.103Z,99461.41
2023-04-21T21:22:10.697Z,99457.92
2023-04-21T21:24:37.525Z,99459.66
2023-04-21T21:27:04.671Z,99460.51
2023-04-21T21:29:31.795Z,99460.86
2023-04-21T21:31:59.861Z,99461.77
2023-04-21T21:34:26.835Z,99462.27
2023-04-21T21:36:53.795Z,99467.14
2023-04-21T21:39:20.834Z,99464.43
2023-04-21T21:41:47.795Z,99465.78
2023-04-21T21:44:14.532Z,99465.41
2023-04-21T21:46:41.712Z,99468.25
2023-04-21T21:49:10.162Z,99469.57
2023-04-21T21:51:37.008Z,99465.83
2023-04-21T21:54:04.858Z,99467.02
2023-04-21T21:56:31.563Z,99468.84
2023-04-21T21:58:58.214Z,99468.75
2023-04-21T22:01:25.292Z,99469.54
2023-04-21T22:03:53.101Z,99469.65
2023-04-21T22:06:23.756Z,99468.17
2023-04-21T22:08:51.545Z,99468.23
2023-04-21T22:11:19.194Z,99465.95
2023-04-21T22:13:46.242Z,99465.73
2023-04-21T22:16:13.164Z,99461.20
2023-04-21T22:18:39.845Z,99462.67
2023-04-21T22:21:06.769Z,99459.21
2023-04-21T22:23:33.774Z,99459.02
2023-04-21T22:26:00.380Z,99457.44
2023-04-21T22:28:27.128Z,99451.77
2023-04-21T22:30:54.200Z,99452.39
2023-04-21T22:33:21.097Z,99453.41
2023-04-21T22:35:47.893Z,99449.44
2023-04-21T22:38:14.748Z,99450.56
2023-04-21T22:40:41.619Z,99449.69
2023-04-21T22:43:08.363Z,99451.52
2023-04-21T22:45:35.543Z,99448.19
2023-04-21T22:48:02.515Z,99448.48
2023-04-21T22:50:29.445Z,99446.47
2023-04-21T22:52:56.825Z,99448.77
2023-04-21T22:55:25.037Z,99451.21
2023-04-21T22:57:51.882Z,99445.45
2023-04-21T23:00:18.793Z,99446.36
2023-04-21T23:02:45.576Z,99449.61
2023-04-21T23:05:12.595Z,99450.44
2023-04-21T23:07:39.453Z,99451.67
2023-04-21T23:10:06.393Z,99447.11
2023-04-21T23:12:33.245Z,99447.26
2023-04-21T23:14:59.896Z,99445.23
2023-04-21T23:17:26.933Z,99443.52
2023-04-21T23:19:54.678Z,99444.95
2023-04-21T23:22:22.521Z,99444.14
2023-04-21T23:24:51.214Z,99438.82
2023-04-21T23:27:18.076Z,99438.66
2023-04-21T23:29:44.968Z,99442.08
2023-04-21T23:32:11.694Z,99444.30
2023-04-21T23:34:38.854Z,99441.33
2023-04-21T23:37:05.796Z,99439.52
2023-04-21T23:39:32.495Z,99437.67
2023-04-21T23:41:59.372Z,99440.27
2023-04-21T23:44:27.326Z,99438.75
2023-04-21T23:46:54.108Z,99438.77
2023-04-21T23:49:21.467Z,99441.38
2023-04-21T23:51:48.475Z,99438.15
2023-04-21T23:54:15.712Z,99440.16
2023-04-21T23:56:42.431Z,99438.44
2023-04-21T23:59:09.093Z,99435.47
